sensor_id;sensor_type;location;lat;lon;timestamp;P1;durP1;ratioP1;P2;durP2;ratioP2
75064;SDS011;63646;49.110;9.140;2022-11-11T00:01:28;11.50;;;4.93;;
75064;SDS011;63646;49.110;9.140;2022-11-11T00:03:54;12.80;;;5.45;;
75064;SDS011;63646;49.110;9.140;2022-11-11T00:06:20;13.02;;;5.45;;
75064;SDS011;63646;49.110;9.140;2022-11-11T00:08:46;13.52;;;5.47;;
75064;SDS011;63646;49.110;9.140;2022-11-11T00:11:12;13.30;;;6.15;;
75064;SDS011;63646;49.110;9.140;2022-11-11T00:13:39;11.93;;;5.10;;
75064;SDS011;63646;49.110;9.140;2022-11-11T00:16:06;12.02;;;4.97;;
75064;SDS011;63646;49.110;9.140;2022-11-11T00:18:40;13.27;;;5.45;;
75064;SDS011;63646;49.110;9.140;2022-11-11T00:21:25;13.93;;;5.25;;
75064;SDS011;63646;49.110;9.140;2022-11-11T00:24:01;11.18;;;5.15;;
75064;SDS011;63646;49.110;9.140;2022-11-11T00:26:45;10.60;;;4.93;;
75064;SDS011;63646;49.110;9.140;2022-11-11T00:29:10;10.90;;;5.07;;
75064;SDS011;63646;49.110;9.140;2022-11-11T00:31:36;12.20;;;4.65;;
75064;SDS011;63646;49.110;9.140;2022-11-11T00:34:21;10.02;;;5.25;;
75064;SDS011;63646;49.110;9.140;2022-11-11T00:36:46;12.97;;;4.97;;
75064;SDS011;63646;49.110;9.140;2022-11-11T00:39:12;13.57;;;4.60;;
75064;SDS011;63646;49.110;9.140;2022-11-11T00:41:37;14.23;;;5.00;;
75064;SDS011;63646;49.110;9.140;2022-11-11T00:44:02;9.07;;;4.53;;
75064;SDS011;63646;49.110;9.140;2022-11-11T00:46:28;11.43;;;4.80;;
75064;SDS011;63646;49.110;9.140;2022-11-11T00:49:12;11.98;;;4.50;;
75064;SDS011;63646;49.110;9.140;2022-11-11T00:51:56;12.15;;;5.80;;
75064;SDS011;63646;49.110;9.140;2022-11-11T00:54:21;10.50;;;4.45;;
75064;SDS011;63646;49.110;9.140;2022-11-11T00:56:46;9.90;;;4.72;;
75064;SDS011;63646;49.110;9.140;2022-11-11T00:59:12;10.87;;;4.73;;
75064;SDS011;63646;49.110;9.140;2022-11-11T01:01:37;11.87;;;5.53;;
75064;SDS011;63646;49.110;9.140;2022-11-11T01:04:03;8.73;;;4.53;;
75064;SDS011;63646;49.110;9.140;2022-11-11T01:08:54;9.90;;;4.10;;
75064;SDS011;63646;49.110;9.140;2022-11-11T01:11:20;8.50;;;4.10;;
75064;SDS011;63646;49.110;9.140;2022-11-11T01:13:47;9.63;;;4.28;;
75064;SDS011;63646;49.110;9.140;2022-11-11T01:16:15;10.52;;;4.65;;
75064;SDS011;63646;49.110;9.140;2022-11-11T01:18:45;8.38;;;4.28;;
75064;SDS011;63646;49.110;9.140;2022-11-11T01:21:13;11.30;;;4.78;;
75064;SDS011;63646;49.110;9.140;2022-11-11T01:23:41;7.35;;;4.50;;
75064;SDS011;63646;49.110;9.140;2022-11-11T01:26:14;8.23;;;4.60;;
75064;SDS011;63646;49.110;9.140;2022-11-11T01:28:42;9.98;;;4.53;;
75064;SDS011;63646;49.110;9.140;2022-11-11T01:31:12;9.73;;;4.22;;
75064;SDS011;63646;49.110;9.140;2022-11-11T01:33:40;7.80;;;4.55;;
75064;SDS011;63646;49.110;9.140;2022-11-11T01:36:22;7.65;;;4.20;;
75064;SDS011;63646;49.110;9.140;2022-11-11T01:38:51;9.80;;;4.38;;
75064;SDS011;63646;49.110;9.140;2022-11-11T01:41:20;10.00;;;4.15;;
75064;SDS011;63646;49.110;9.140;2022-11-11T01:43:57;7.18;;;4.03;;
75064;SDS011;63646;49.110;9.140;2022-11-11T01:57:24;8.60;;;4.40;;
75064;SDS011;63646;49.110;9.140;2022-11-11T02:00:04;5.53;;;3.90;;
75064;SDS011;63646;49.110;9.140;2022-11-11T02:02:39;7.05;;;4.10;;
75064;SDS011;63646;49.110;9.140;2022-11-11T02:05:11;9.05;;;4.28;;
75064;SDS011;63646;49.110;9.140;2022-11-11T02:07:57;8.85;;;4.60;;
75064;SDS011;63646;49.110;9.140;2022-11-11T02:10:25;9.60;;;4.20;;
75064;SDS011;63646;49.110;9.140;2022-11-11T02:12:54;6.03;;;3.85;;
75064;SDS011;63646;49.110;9.140;2022-11-11T02:15:38;8.38;;;4.10;;
75064;SDS011;63646;49.110;9.140;2022-11-11T02:18:04;7.05;;;3.90;;
75064;SDS011;63646;49.110;9.140;2022-11-11T02:20:33;7.45;;;4.32;;
75064;SDS011;63646;49.110;9.140;2022-11-11T02:25:32;7.47;;;3.95;;
75064;SDS011;63646;49.110;9.140;2022-11-11T02:28:02;7.53;;;4.03;;
75064;SDS011;63646;49.110;9.140;2022-11-11T02:30:30;7.07;;;4.30;;
75064;SDS011;63646;49.110;9.140;2022-11-11T02:32:55;8.35;;;4.40;;
75064;SDS011;63646;49.110;9.140;2022-11-11T02:35:22;7.55;;;4.22;;
75064;SDS011;63646;49.110;9.140;2022-11-11T02:37:53;7.15;;;3.90;;
75064;SDS011;63646;49.110;9.140;2022-11-11T02:40:35;9.25;;;4.47;;
75064;SDS011;63646;49.110;9.140;2022-11-11T02:43:03;7.90;;;3.97;;
75064;SDS011;63646;49.110;9.140;2022-11-11T02:45:29;6.95;;;3.80;;
75064;SDS011;63646;49.110;9.140;2022-11-11T02:47:54;7.47;;;3.95;;
75064;SDS011;63646;49.110;9.140;2022-11-11T02:50:20;6.97;;;3.53;;
75064;SDS011;63646;49.110;9.140;2022-11-11T02:52:45;6.70;;;3.57;;
75064;SDS011;63646;49.110;9.140;2022-11-11T02:55:10;7.67;;;3.83;;
75064;SDS011;63646;49.110;9.140;2022-11-11T02:57:36;7.72;;;3.58;;
75064;SDS011;63646;49.110;9.140;2022-11-11T03:00:02;6.68;;;3.75;;
75064;SDS011;63646;49.110;9.140;2022-11-11T03:02:28;7.60;;;3.97;;
75064;SDS011;63646;49.110;9.140;2022-11-11T03:04:54;4.63;;;3.33;;
75064;SDS011;63646;49.110;9.140;2022-11-11T03:07:20;6.43;;;3.63;;
75064;SDS011;63646;49.110;9.140;2022-11-11T03:09:46;7.40;;;3.83;;
75064;SDS011;63646;49.110;9.140;2022-11-11T03:12:11;8.25;;;4.00;;
75064;SDS011;63646;49.110;9.140;2022-11-11T03:14:36;6.55;;;4.00;;
75064;SDS011;63646;49.110;9.140;2022-11-11T03:17:02;7.22;;;4.13;;
75064;SDS011;63646;49.110;9.140;2022-11-11T03:19:46;7.00;;;3.95;;
75064;SDS011;63646;49.110;9.140;2022-11-11T03:22:11;6.70;;;3.65;;
75064;SDS011;63646;49.110;9.140;2022-11-11T03:24:37;9.57;;;4.15;;
75064;SDS011;63646;49.110;9.140;2022-11-11T03:27:21;5.40;;;3.60;;
75064;SDS011;63646;49.110;9.140;2022-11-11T03:29:46;7.47;;;3.53;;
75064;SDS011;63646;49.110;9.140;2022-11-11T03:32:11;6.37;;;3.60;;
75064;SDS011;63646;49.110;9.140;2022-11-11T03:34:37;6.40;;;3.33;;
75064;SDS011;63646;49.110;9.140;2022-11-11T03:37:07;6.22;;;3.53;;
75064;SDS011;63646;49.110;9.140;2022-11-11T03:39:53;5.80;;;3.28;;
75064;SDS011;63646;49.110;9.140;2022-11-11T03:42:18;6.87;;;3.80;;
75064;SDS011;63646;49.110;9.140;2022-11-11T03:44:43;7.68;;;3.88;;
75064;SDS011;63646;49.110;9.140;2022-11-11T03:47:09;6.63;;;3.78;;
75064;SDS011;63646;49.110;9.140;2022-11-11T03:49:34;5.88;;;4.07;;
75064;SDS011;63646;49.110;9.140;2022-11-11T03:51:59;7.07;;;3.45;;
75064;SDS011;63646;49.110;9.140;2022-11-11T03:54:25;5.88;;;3.70;;
75064;SDS011;63646;49.110;9.140;2022-11-11T03:56:50;6.30;;;3.60;;
75064;SDS011;63646;49.110;9.140;2022-11-11T03:59:16;7.30;;;3.93;;
75064;SDS011;63646;49.110;9.140;2022-11-11T04:01:41;5.45;;;3.50;;
75064;SDS011;63646;49.110;9.140;2022-11-11T04:04:25;5.00;;;3.47;;
75064;SDS011;63646;49.110;9.140;2022-11-11T04:07:09;7.13;;;3.78;;
75064;SDS011;63646;49.110;9.140;2022-11-11T04:10:07;5.18;;;3.45;;
75064;SDS011;63646;49.110;9.140;2022-11-11T04:12:47;6.97;;;3.72;;
75064;SDS011;63646;49.110;9.140;2022-11-11T04:18:27;5.20;;;3.17;;
75064;SDS011;63646;49.110;9.140;2022-11-11T04:21:11;5.65;;;3.58;;
75064;SDS011;63646;49.110;9.140;2022-11-11T04:23:54;6.18;;;3.38;;
75064;SDS011;63646;49.110;9.140;2022-11-11T04:26:20;4.40;;;3.22;;
75064;SDS011;63646;49.110;9.140;2022-11-11T04:28:46;6.35;;;3.38;;
75064;SDS011;63646;49.110;9.140;2022-11-11T04:31:30;7.20;;;3.78;;
75064;SDS011;63646;49.110;9.140;2022-11-11T04:33:55;7.13;;;4.07;;
75064;SDS011;63646;49.110;9.140;2022-11-11T04:36:21;5.80;;;3.40;;
75064;SDS011;63646;49.110;9.140;2022-11-11T04:38:46;5.77;;;3.47;;
75064;SDS011;63646;49.110;9.140;2022-11-11T04:41:30;5.32;;;3.70;;
75064;SDS011;63646;49.110;9.140;2022-11-11T04:43:55;5.13;;;3.40;;
75064;SDS011;63646;49.110;9.140;2022-11-11T04:46:39;5.80;;;3.55;;
75064;SDS011;63646;49.110;9.140;2022-11-11T04:49:05;4.28;;;3.30;;
75064;SDS011;63646;49.110;9.140;2022-11-11T04:51:30;7.17;;;3.60;;
75064;SDS011;63646;49.110;9.140;2022-11-11T04:54:15;6.93;;;3.05;;
75064;SDS011;63646;49.110;9.140;2022-11-11T04:56:41;6.38;;;3.50;;
75064;SDS011;63646;49.110;9.140;2022-11-11T04:59:13;5.20;;;3.28;;
75064;SDS011;63646;49.110;9.140;2022-11-11T05:01:42;5.10;;;2.97;;
75064;SDS011;63646;49.110;9.140;2022-11-11T05:04:26;4.93;;;3.20;;
75064;SDS011;63646;49.110;9.140;2022-11-11T05:06:51;5.80;;;3.35;;
75064;SDS011;63646;49.110;9.140;2022-11-11T05:09:35;5.65;;;3.17;;
75064;SDS011;63646;49.110;9.140;2022-11-11T05:12:01;5.10;;;3.20;;
75064;SDS011;63646;49.110;9.140;2022-11-11T05:14:26;5.07;;;3.20;;
75064;SDS011;63646;49.110;9.140;2022-11-11T05:17:10;5.75;;;3.28;;
75064;SDS011;63646;49.110;9.140;2022-11-11T05:19:54;5.22;;;3.03;;
75064;SDS011;63646;49.110;9.140;2022-11-11T05:22:38;4.50;;;3.15;;
75064;SDS011;63646;49.110;9.140;2022-11-11T05:25:05;5.43;;;3.30;;
75064;SDS011;63646;49.110;9.140;2022-11-11T05:27:50;4.70;;;2.97;;
75064;SDS011;63646;49.110;9.140;2022-11-11T05:32:42;4.20;;;2.97;;
75064;SDS011;63646;49.110;9.140;2022-11-11T05:35:08;5.18;;;3.00;;
75064;SDS011;63646;49.110;9.140;2022-11-11T05:37:34;5.47;;;3.00;;
75064;SDS011;63646;49.110;9.140;2022-11-11T05:40:00;4.65;;;3.00;;
75064;SDS011;63646;49.110;9.140;2022-11-11T05:42:25;4.22;;;2.85;;
75064;SDS011;63646;49.110;9.140;2022-11-11T05:44:51;4.40;;;3.00;;
75064;SDS011;63646;49.110;9.140;2022-11-11T05:47:17;3.92;;;3.05;;
75064;SDS011;63646;49.110;9.140;2022-11-11T05:49:42;5.53;;;3.10;;
75064;SDS011;63646;49.110;9.140;2022-11-11T05:52:09;5.13;;;3.03;;
75064;SDS011;63646;49.110;9.140;2022-11-11T05:54:35;8.00;;;3.08;;
75064;SDS011;63646;49.110;9.140;2022-11-11T05:57:01;3.70;;;2.83;;
75064;SDS011;63646;49.110;9.140;2022-11-11T05:59:29;4.22;;;3.00;;
75064;SDS011;63646;49.110;9.140;2022-11-11T06:01:54;5.97;;;3.10;;
75064;SDS011;63646;49.110;9.140;2022-11-11T06:04:19;6.47;;;3.20;;
75064;SDS011;63646;49.110;9.140;2022-11-11T06:06:45;6.55;;;3.17;;
75064;SDS011;63646;49.110;9.140;2022-11-11T06:09:11;4.53;;;2.83;;
75064;SDS011;63646;49.110;9.140;2022-11-11T06:11:36;4.07;;;3.20;;
75064;SDS011;63646;49.110;9.140;2022-11-11T06:14:01;5.90;;;3.10;;
75064;SDS011;63646;49.110;9.140;2022-11-11T06:16:27;4.38;;;2.67;;
75064;SDS011;63646;49.110;9.140;2022-11-11T06:18:52;4.20;;;2.97;;
75064;SDS011;63646;49.110;9.140;2022-11-11T06:21:18;4.25;;;3.08;;
75064;SDS011;63646;49.110;9.140;2022-11-11T06:23:43;6.18;;;3.22;;
75064;SDS011;63646;49.110;9.140;2022-11-11T06:26:11;4.68;;;2.97;;
75064;SDS011;63646;49.110;9.140;2022-11-11T06:28:38;7.05;;;2.92;;
75064;SDS011;63646;49.110;9.140;2022-11-11T06:31:17;4.60;;;2.78;;
75064;SDS011;63646;49.110;9.140;2022-11-11T06:33:44;8.50;;;3.70;;
75064;SDS011;63646;49.110;9.140;2022-11-11T06:36:10;7.40;;;2.75;;
75064;SDS011;63646;49.110;9.140;2022-11-11T06:38:38;6.88;;;3.25;;
75064;SDS011;63646;49.110;9.140;2022-11-11T06:41:04;5.93;;;3.03;;
75064;SDS011;63646;49.110;9.140;2022-11-11T06:43:30;5.50;;;2.90;;
75064;SDS011;63646;49.110;9.140;2022-11-11T06:45:56;5.90;;;2.97;;
75064;SDS011;63646;49.110;9.140;2022-11-11T06:48:22;4.95;;;2.80;;
75064;SDS011;63646;49.110;9.140;2022-11-11T06:50:48;5.18;;;2.92;;
75064;SDS011;63646;49.110;9.140;2022-11-11T06:53:15;7.63;;;2.80;;
75064;SDS011;63646;49.110;9.140;2022-11-11T06:55:42;10.45;;;2.83;;
75064;SDS011;63646;49.110;9.140;2022-11-11T06:58:11;4.53;;;2.63;;
75064;SDS011;63646;49.110;9.140;2022-11-11T07:00:37;6.18;;;2.72;;
75064;SDS011;63646;49.110;9.140;2022-11-11T07:03:04;5.35;;;2.67;;
75064;SDS011;63646;49.110;9.140;2022-11-11T07:05:33;6.55;;;2.90;;
75064;SDS011;63646;49.110;9.140;2022-11-11T07:08:03;5.80;;;2.53;;
75064;SDS011;63646;49.110;9.140;2022-11-11T07:10:30;5.53;;;2.70;;
75064;SDS011;63646;49.110;9.140;2022-11-11T07:12:58;7.20;;;3.17;;
75064;SDS011;63646;49.110;9.140;2022-11-11T07:15:24;12.10;;;2.67;;
75064;SDS011;63646;49.110;9.140;2022-11-11T07:17:50;5.35;;;2.72;;
75064;SDS011;63646;49.110;9.140;2022-11-11T07:20:15;7.18;;;2.92;;
75064;SDS011;63646;49.110;9.140;2022-11-11T07:22:41;6.40;;;2.90;;
75064;SDS011;63646;49.110;9.140;2022-11-11T07:25:07;4.22;;;3.13;;
75064;SDS011;63646;49.110;9.140;2022-11-11T07:27:35;3.85;;;2.50;;
75064;SDS011;63646;49.110;9.140;2022-11-11T07:30:02;5.90;;;2.90;;
75064;SDS011;63646;49.110;9.140;2022-11-11T07:32:28;3.80;;;2.65;;
75064;SDS011;63646;49.110;9.140;2022-11-11T07:34:53;6.65;;;2.90;;
75064;SDS011;63646;49.110;9.140;2022-11-11T07:37:19;9.93;;;3.03;;
75064;SDS011;63646;49.110;9.140;2022-11-11T07:39:44;9.23;;;3.20;;
75064;SDS011;63646;49.110;9.140;2022-11-11T07:42:09;6.45;;;3.00;;
75064;SDS011;63646;49.110;9.140;2022-11-11T07:44:35;9.40;;;2.90;;
75064;SDS011;63646;49.110;9.140;2022-11-11T07:47:00;6.03;;;2.63;;
75064;SDS011;63646;49.110;9.140;2022-11-11T07:49:25;6.32;;;2.90;;
75064;SDS011;63646;49.110;9.140;2022-11-11T07:51:51;3.80;;;2.63;;
75064;SDS011;63646;49.110;9.140;2022-11-11T07:54:16;4.60;;;2.42;;
75064;SDS011;63646;49.110;9.140;2022-11-11T07:56:41;5.65;;;2.75;;
75064;SDS011;63646;49.110;9.140;2022-11-11T07:59:07;6.97;;;3.10;;
75064;SDS011;63646;49.110;9.140;2022-11-11T08:01:32;4.93;;;2.70;;
75064;SDS011;63646;49.110;9.140;2022-11-11T08:03:57;5.72;;;2.88;;
75064;SDS011;63646;49.110;9.140;2022-11-11T08:06:23;4.57;;;2.70;;
75064;SDS011;63646;49.110;9.140;2022-11-11T08:08:48;6.72;;;2.63;;
75064;SDS011;63646;49.110;9.140;2022-11-11T08:11:14;5.03;;;2.67;;
75064;SDS011;63646;49.110;9.140;2022-11-11T08:13:50;6.13;;;2.78;;
75064;SDS011;63646;49.110;9.140;2022-11-11T08:16:34;4.88;;;2.40;;
75064;SDS011;63646;49.110;9.140;2022-11-11T08:19:00;6.03;;;2.97;;
75064;SDS011;63646;49.110;9.140;2022-11-11T08:21:25;6.43;;;2.72;;
75064;SDS011;63646;49.110;9.140;2022-11-11T08:23:51;6.78;;;2.85;;
75064;SDS011;63646;49.110;9.140;2022-11-11T08:26:17;6.00;;;2.47;;
75064;SDS011;63646;49.110;9.140;2022-11-11T08:28:43;4.57;;;2.45;;
75064;SDS011;63646;49.110;9.140;2022-11-11T08:31:09;4.57;;;2.58;;
75064;SDS011;63646;49.110;9.140;2022-11-11T08:33:34;5.38;;;2.63;;
75064;SDS011;63646;49.110;9.140;2022-11-11T08:36:00;5.65;;;3.58;;
75064;SDS011;63646;49.110;9.140;2022-11-11T08:38:26;7.05;;;2.80;;
75064;SDS011;63646;49.110;9.140;2022-11-11T08:40:52;3.92;;;2.42;;
75064;SDS011;63646;49.110;9.140;2022-11-11T08:43:18;6.05;;;2.45;;
75064;SDS011;63646;49.110;9.140;2022-11-11T08:45:43;4.97;;;2.42;;
75064;SDS011;63646;49.110;9.140;2022-11-11T08:48:09;5.57;;;2.83;;
75064;SDS011;63646;49.110;9.140;2022-11-11T08:50:38;7.45;;;2.70;;
75064;SDS011;63646;49.110;9.140;2022-11-11T08:53:05;3.78;;;2.80;;
75064;SDS011;63646;49.110;9.140;2022-11-11T08:55:35;5.38;;;2.45;;
75064;SDS011;63646;49.110;9.140;2022-11-11T08:58:02;4.90;;;2.42;;
75064;SDS011;63646;49.110;9.140;2022-11-11T09:00:31;5.30;;;2.85;;
75064;SDS011;63646;49.110;9.140;2022-11-11T09:03:01;5.85;;;2.65;;
75064;SDS011;63646;49.110;9.140;2022-11-11T09:05:29;4.80;;;2.78;;
75064;SDS011;63646;49.110;9.140;2022-11-11T09:07:54;5.45;;;3.10;;
75064;SDS011;63646;49.110;9.140;2022-11-11T09:10:20;4.13;;;3.00;;
75064;SDS011;63646;49.110;9.140;2022-11-11T09:12:45;5.00;;;3.22;;
75064;SDS011;63646;49.110;9.140;2022-11-11T09:15:11;3.63;;;2.60;;
75064;SDS011;63646;49.110;9.140;2022-11-11T09:17:36;3.67;;;2.97;;
75064;SDS011;63646;49.110;9.140;2022-11-11T09:20:01;4.40;;;2.60;;
75064;SDS011;63646;49.110;9.140;2022-11-11T09:22:27;4.53;;;2.80;;
75064;SDS011;63646;49.110;9.140;2022-11-11T09:24:53;6.03;;;2.70;;
75064;SDS011;63646;49.110;9.140;2022-11-11T09:27:18;4.75;;;2.60;;
75064;SDS011;63646;49.110;9.140;2022-11-11T09:29:43;3.75;;;2.70;;
75064;SDS011;63646;49.110;9.140;2022-11-11T09:32:09;3.80;;;2.70;;
75064;SDS011;63646;49.110;9.140;2022-11-11T09:34:34;5.47;;;3.33;;
75064;SDS011;63646;49.110;9.140;2022-11-11T09:37:00;3.97;;;2.97;;
75064;SDS011;63646;49.110;9.140;2022-11-11T09:39:25;5.22;;;3.47;;
75064;SDS011;63646;49.110;9.140;2022-11-11T09:41:57;6.77;;;4.10;;
75064;SDS011;63646;49.110;9.140;2022-11-11T09:47:12;7.20;;;4.00;;
75064;SDS011;63646;49.110;9.140;2022-11-11T09:52:30;6.85;;;3.45;;
75064;SDS011;63646;49.110;9.140;2022-11-11T09:57:50;4.53;;;3.40;;
75064;SDS011;63646;49.110;9.140;2022-11-11T10:00:27;5.20;;;3.45;;
75064;SDS011;63646;49.110;9.140;2022-11-11T10:03:00;5.18;;;3.45;;
75064;SDS011;63646;49.110;9.140;2022-11-11T10:05:44;9.15;;;3.47;;
75064;SDS011;63646;49.110;9.140;2022-11-11T10:10:50;4.15;;;3.33;;
75064;SDS011;63646;49.110;9.140;2022-11-11T10:13:22;6.22;;;3.50;;
75064;SDS011;63646;49.110;9.140;2022-11-11T10:21:56;5.85;;;3.05;;
75064;SDS011;63646;49.110;9.140;2022-11-11T10:29:49;5.15;;;3.30;;
75064;SDS011;63646;49.110;9.140;2022-11-11T10:32:21;5.57;;;2.83;;
75064;SDS011;63646;49.110;9.140;2022-11-11T10:34:50;4.40;;;2.95;;
75064;SDS011;63646;49.110;9.140;2022-11-11T10:39:47;4.17;;;3.23;;
75064;SDS011;63646;49.110;9.140;2022-11-11T10:42:16;5.47;;;3.28;;
75064;SDS011;63646;49.110;9.140;2022-11-11T10:44:42;3.83;;;2.63;;
75064;SDS011;63646;49.110;9.140;2022-11-11T10:49:39;5.10;;;2.97;;
75064;SDS011;63646;49.110;9.140;2022-11-11T10:57:21;4.38;;;2.95;;
75064;SDS011;63646;49.110;9.140;2022-11-11T11:00:13;5.32;;;2.83;;
75064;SDS011;63646;49.110;9.140;2022-11-11T11:03:01;6.13;;;3.05;;
75064;SDS011;63646;49.110;9.140;2022-11-11T11:08:09;3.40;;;3.10;;
75064;SDS011;63646;49.110;9.140;2022-11-11T11:10:40;4.32;;;3.15;;
75064;SDS011;63646;49.110;9.140;2022-11-11T11:16:17;3.40;;;2.42;;
75064;SDS011;63646;49.110;9.140;2022-11-11T11:22:16;5.15;;;3.10;;
75064;SDS011;63646;49.110;9.140;2022-11-11T11:24:41;4.70;;;3.22;;
75064;SDS011;63646;49.110;9.140;2022-11-11T11:27:07;4.77;;;3.27;;
75064;SDS011;63646;49.110;9.140;2022-11-11T11:32:19;5.47;;;3.30;;
75064;SDS011;63646;49.110;9.140;2022-11-11T11:34:52;12.13;;;3.85;;
75064;SDS011;63646;49.110;9.140;2022-11-11T11:37:20;13.55;;;4.88;;
75064;SDS011;63646;49.110;9.140;2022-11-11T11:39:47;8.70;;;4.70;;
75064;SDS011;63646;49.110;9.140;2022-11-11T11:42:29;10.95;;;4.82;;
75064;SDS011;63646;49.110;9.140;2022-11-11T11:44:55;9.88;;;4.53;;
75064;SDS011;63646;49.110;9.140;2022-11-11T11:55:27;15.32;;;6.53;;
75064;SDS011;63646;49.110;9.140;2022-11-11T12:00:48;13.02;;;6.07;;
75064;SDS011;63646;49.110;9.140;2022-11-11T12:08:49;9.45;;;5.32;;
75064;SDS011;63646;49.110;9.140;2022-11-11T12:11:30;7.55;;;4.97;;
75064;SDS011;63646;49.110;9.140;2022-11-11T12:16:55;9.77;;;4.95;;
75064;SDS011;63646;49.110;9.140;2022-11-11T12:28:25;8.93;;;4.90;;
75064;SDS011;63646;49.110;9.140;2022-11-11T12:36:42;8.38;;;4.80;;
75064;SDS011;63646;49.110;9.140;2022-11-11T12:55:53;8.68;;;4.10;;
75064;SDS011;63646;49.110;9.140;2022-11-11T13:10:42;9.20;;;3.83;;
75064;SDS011;63646;49.110;9.140;2022-11-11T13:15:25;9.02;;;4.00;;
75064;SDS011;63646;49.110;9.140;2022-11-11T13:17:51;7.10;;;3.58;;
75064;SDS011;63646;49.110;9.140;2022-11-11T13:22:51;6.05;;;4.22;;
75064;SDS011;63646;49.110;9.140;2022-11-11T13:25:21;7.60;;;3.92;;
75064;SDS011;63646;49.110;9.140;2022-11-11T13:32:47;6.85;;;3.47;;
75064;SDS011;63646;49.110;9.140;2022-11-11T13:37:50;7.40;;;3.70;;
75064;SDS011;63646;49.110;9.140;2022-11-11T13:43:11;4.28;;;3.35;;
75064;SDS011;63646;49.110;9.140;2022-11-11T13:45:42;7.15;;;3.92;;
75064;SDS011;63646;49.110;9.140;2022-11-11T13:48:16;8.55;;;3.65;;
75064;SDS011;63646;49.110;9.140;2022-11-11T13:50:50;7.57;;;3.72;;
75064;SDS011;63646;49.110;9.140;2022-11-11T13:53:24;8.27;;;4.10;;
75064;SDS011;63646;49.110;9.140;2022-11-11T13:55:57;7.18;;;4.05;;
75064;SDS011;63646;49.110;9.140;2022-11-11T13:58:28;6.63;;;3.60;;
75064;SDS011;63646;49.110;9.140;2022-11-11T14:00:57;8.27;;;3.55;;
75064;SDS011;63646;49.110;9.140;2022-11-11T14:06:37;6.07;;;3.45;;
75064;SDS011;63646;49.110;9.140;2022-11-11T14:24:39;5.50;;;3.13;;
75064;SDS011;63646;49.110;9.140;2022-11-11T14:29:34;6.03;;;3.93;;
75064;SDS011;63646;49.110;9.140;2022-11-11T14:40:28;5.20;;;3.42;;
75064;SDS011;63646;49.110;9.140;2022-11-11T14:42:56;7.72;;;3.58;;
75064;SDS011;63646;49.110;9.140;2022-11-11T14:47:49;9.10;;;3.63;;
75064;SDS011;63646;49.110;9.140;2022-11-11T14:53:00;7.50;;;3.63;;
75064;SDS011;63646;49.110;9.140;2022-11-11T14:55:36;8.95;;;3.70;;
75064;SDS011;63646;49.110;9.140;2022-11-11T15:00:33;7.30;;;3.50;;
75064;SDS011;63646;49.110;9.140;2022-11-11T15:05:52;5.95;;;3.13;;
75064;SDS011;63646;49.110;9.140;2022-11-11T15:08:25;6.35;;;3.42;;
75064;SDS011;63646;49.110;9.140;2022-11-11T15:22:23;6.50;;;3.17;;
75064;SDS011;63646;49.110;9.140;2022-11-11T15:38:57;7.45;;;3.20;;
75064;SDS011;63646;49.110;9.140;2022-11-11T15:41:31;8.80;;;3.05;;
75064;SDS011;63646;49.110;9.140;2022-11-11T15:44:01;8.13;;;3.40;;
75064;SDS011;63646;49.110;9.140;2022-11-11T15:46:28;4.30;;;2.85;;
75064;SDS011;63646;49.110;9.140;2022-11-11T15:48:55;9.73;;;3.50;;
75064;SDS011;63646;49.110;9.140;2022-11-11T15:53:46;6.80;;;2.83;;
75064;SDS011;63646;49.110;9.140;2022-11-11T15:56:25;6.82;;;3.45;;
75064;SDS011;63646;49.110;9.140;2022-11-11T15:58:53;4.60;;;3.13;;
75064;SDS011;63646;49.110;9.140;2022-11-11T16:01:19;8.32;;;3.28;;
75064;SDS011;63646;49.110;9.140;2022-11-11T16:03:50;7.20;;;3.10;;
75064;SDS011;63646;49.110;9.140;2022-11-11T16:06:16;5.65;;;3.10;;
75064;SDS011;63646;49.110;9.140;2022-11-11T16:08:43;7.60;;;3.22;;
75064;SDS011;63646;49.110;9.140;2022-11-11T16:11:14;5.63;;;3.25;;
75064;SDS011;63646;49.110;9.140;2022-11-11T16:14:25;5.45;;;3.13;;
75064;SDS011;63646;49.110;9.140;2022-11-11T16:16:45;4.55;;;2.80;;
75064;SDS011;63646;49.110;9.140;2022-11-11T16:21:44;4.75;;;2.88;;
75064;SDS011;63646;49.110;9.140;2022-11-11T16:24:22;4.60;;;3.05;;
75064;SDS011;63646;49.110;9.140;2022-11-11T16:26:47;3.60;;;3.03;;
75064;SDS011;63646;49.110;9.140;2022-11-11T16:29:13;3.42;;;2.83;;
75064;SDS011;63646;49.110;9.140;2022-11-11T16:31:40;4.32;;;2.90;;
75064;SDS011;63646;49.110;9.140;2022-11-11T16:39:28;4.00;;;2.63;;
75064;SDS011;63646;49.110;9.140;2022-11-11T16:41:58;4.53;;;2.90;;
75064;SDS011;63646;49.110;9.140;2022-11-11T16:44:32;3.42;;;2.72;;
75064;SDS011;63646;49.110;9.140;2022-11-11T16:47:03;3.30;;;2.65;;
75064;SDS011;63646;49.110;9.140;2022-11-11T16:51:55;4.40;;;2.87;;
75064;SDS011;63646;49.110;9.140;2022-11-11T16:54:32;3.03;;;2.67;;
75064;SDS011;63646;49.110;9.140;2022-11-11T16:57:00;5.20;;;3.08;;
75064;SDS011;63646;49.110;9.140;2022-11-11T16:59:47;5.15;;;2.95;;
75064;SDS011;63646;49.110;9.140;2022-11-11T17:02:18;3.85;;;3.00;;
75064;SDS011;63646;49.110;9.140;2022-11-11T17:04:46;5.30;;;2.78;;
75064;SDS011;63646;49.110;9.140;2022-11-11T17:07:29;4.22;;;2.63;;
75064;SDS011;63646;49.110;9.140;2022-11-11T17:10:09;4.10;;;2.78;;
75064;SDS011;63646;49.110;9.140;2022-11-11T17:12:36;5.95;;;3.05;;
75064;SDS011;63646;49.110;9.140;2022-11-11T17:15:03;6.32;;;2.67;;
75064;SDS011;63646;49.110;9.140;2022-11-11T17:17:29;4.50;;;2.97;;
75064;SDS011;63646;49.110;9.140;2022-11-11T17:20:02;4.57;;;3.67;;
75064;SDS011;63646;49.110;9.140;2022-11-11T17:22:29;5.55;;;2.85;;
75064;SDS011;63646;49.110;9.140;2022-11-11T17:24:54;3.80;;;2.75;;
75064;SDS011;63646;49.110;9.140;2022-11-11T17:27:20;4.00;;;2.40;;
75064;SDS011;63646;49.110;9.140;2022-11-11T17:29:45;3.50;;;2.88;;
75064;SDS011;63646;49.110;9.140;2022-11-11T17:32:12;2.95;;;2.65;;
75064;SDS011;63646;49.110;9.140;2022-11-11T17:34:37;3.15;;;2.85;;
75064;SDS011;63646;49.110;9.140;2022-11-11T17:37:03;4.45;;;2.70;;
75064;SDS011;63646;49.110;9.140;2022-11-11T17:39:28;3.58;;;2.63;;
75064;SDS011;63646;49.110;9.140;2022-11-11T17:41:54;3.50;;;2.70;;
75064;SDS011;63646;49.110;9.140;2022-11-11T17:44:19;4.20;;;2.77;;
75064;SDS011;63646;49.110;9.140;2022-11-11T17:46:45;5.17;;;2.93;;
75064;SDS011;63646;49.110;9.140;2022-11-11T17:49:10;3.50;;;2.58;;
75064;SDS011;63646;49.110;9.140;2022-11-11T17:51:35;5.40;;;2.83;;
75064;SDS011;63646;49.110;9.140;2022-11-11T17:54:01;4.18;;;2.85;;
75064;SDS011;63646;49.110;9.140;2022-11-11T17:56:26;4.20;;;2.90;;
75064;SDS011;63646;49.110;9.140;2022-11-11T17:58:52;6.28;;;3.50;;
75064;SDS011;63646;49.110;9.140;2022-11-11T18:01:23;3.58;;;2.90;;
75064;SDS011;63646;49.110;9.140;2022-11-11T18:03:55;8.07;;;3.45;;
75064;SDS011;63646;49.110;9.140;2022-11-11T18:06:21;6.65;;;3.10;;
75064;SDS011;63646;49.110;9.140;2022-11-11T18:08:46;5.35;;;3.35;;
75064;SDS011;63646;49.110;9.140;2022-11-11T18:11:12;5.20;;;3.10;;
75064;SDS011;63646;49.110;9.140;2022-11-11T18:13:37;5.15;;;3.22;;
75064;SDS011;63646;49.110;9.140;2022-11-11T18:16:03;6.45;;;3.03;;
75064;SDS011;63646;49.110;9.140;2022-11-11T18:18:29;6.93;;;2.88;;
75064;SDS011;63646;49.110;9.140;2022-11-11T18:23:31;8.02;;;3.65;;
75064;SDS011;63646;49.110;9.140;2022-11-11T18:25:57;5.22;;;3.58;;
75064;SDS011;63646;49.110;9.140;2022-11-11T18:28:23;10.77;;;3.83;;
75064;SDS011;63646;49.110;9.140;2022-11-11T18:30:48;7.65;;;2.97;;
75064;SDS011;63646;49.110;9.140;2022-11-11T18:33:14;5.25;;;2.97;;
75064;SDS011;63646;49.110;9.140;2022-11-11T18:35:39;7.25;;;3.35;;
75064;SDS011;63646;49.110;9.140;2022-11-11T18:38:04;4.70;;;3.35;;
75064;SDS011;63646;49.110;9.140;2022-11-11T18:40:30;7.80;;;3.03;;
75064;SDS011;63646;49.110;9.140;2022-11-11T18:42:55;5.88;;;3.08;;